createdAt,value
2022-12-19T00:01:34.866Z,14.70
2022-12-19T00:04:04.730Z,14.70
2022-12-19T00:06:35.356Z,14.70
2022-12-19T00:09:01.915Z,14.60
2022-12-19T00:11:29.406Z,14.60
2022-12-19T00:13:56.244Z,14.70
2022-12-19T00:16:24.180Z,14.60
2022-12-19T00:18:55.189Z,14.60
2022-12-19T00:21:23.107Z,14.60
2022-12-19T00:23:49.985Z,14.60
2022-12-19T00:26:18.023Z,14.70
2022-12-19T00:28:45.496Z,14.70
2022-12-19T00:31:12.190Z,14.60
2022-12-19T00:33:42.599Z,14.60
2022-12-19T00:36:11.445Z,14.60
2022-12-19T00:38:38.177Z,14.70
2022-12-19T00:41:18.775Z,14.70
2022-12-19T00:43:45.852Z,14.70
2022-12-19T00:46:13.756Z,14.80
2022-12-19T00:48:40.529Z,14.80
2022-12-19T00:51:08.460Z,14.90
2022-12-19T00:53:35.045Z,15.80
2022-12-19T00:56:02.933Z,14.90
2022-12-19T00:58:32.147Z,14.90
2022-12-19T01:01:08.561Z,14.80
2022-12-19T01:03:35.200Z,14.80
2022-12-19T01:06:02.035Z,14.80
2022-12-19T01:08:28.596Z,14.80
2022-12-19T01:10:56.014Z,14.80
2022-12-19T01:13:22.934Z,14.80
2022-12-19T01:15:49.547Z,14.80
2022-12-19T01:18:16.134Z,14.80
2022-12-19T01:20:44.118Z,14.80
2022-12-19T01:23:10.755Z,14.80
2022-12-19T01:25:38.624Z,14.80
2022-12-19T01:28:07.903Z,14.80
2022-12-19T01:30:35.521Z,14.70
2022-12-19T01:33:02.295Z,14.70
2022-12-19T01:35:28.892Z,14.80
2022-12-19T01:38:08.196Z,14.70
2022-12-19T01:40:35.848Z,14.70
2022-12-19T01:43:02.430Z,14.70
2022-12-19T01:45:34.510Z,14.70
2022-12-19T01:48:15.720Z,14.70
2022-12-19T01:51:01.844Z,14.70
2022-12-19T01:53:31.532Z,14.70
2022-12-19T01:55:58.129Z,15.50
2022-12-19T01:58:25.198Z,14.70
2022-12-19T02:00:51.816Z,14.70
2022-12-19T02:03:26.779Z,14.70
2022-12-19T02:05:54.010Z,14.70
2022-12-19T02:08:21.392Z,14.70
2022-12-19T02:10:47.998Z,14.80
2022-12-19T02:13:14.722Z,14.70
2022-12-19T02:15:51.136Z,14.70
2022-12-19T02:18:20.469Z,14.70
2022-12-19T02:21:06.043Z,14.70
2022-12-19T02:23:35.586Z,14.70
2022-12-19T02:26:14.249Z,14.70
2022-12-19T02:29:00.190Z,14.70
2022-12-19T02:31:35.136Z,14.70
2022-12-19T02:34:14.046Z,14.60
2022-12-19T02:36:45.321Z,14.60
2022-12-19T02:39:16.065Z,14.60
2022-12-19T02:41:47.611Z,14.60
2022-12-19T02:44:19.287Z,14.60
2022-12-19T02:46:46.076Z,14.60
2022-12-19T02:49:17.831Z,14.60
2022-12-19T02:51:50.514Z,14.60
2022-12-19T02:54:17.175Z,14.60
2022-12-19T02:56:52.603Z,14.60
2022-12-19T02:59:31.433Z,14.60
2022-12-19T03:02:17.148Z,14.60
2022-12-19T03:04:56.273Z,14.60
2022-12-19T03:07:31.101Z,14.70
2022-12-19T03:10:05.521Z,14.70
2022-12-19T03:12:34.299Z,14.70
2022-12-19T03:15:01.309Z,14.70
2022-12-19T03:17:28.218Z,14.70
2022-12-19T03:19:55.516Z,14.70
2022-12-19T03:22:22.320Z,14.70
2022-12-19T03:24:48.948Z,14.70
2022-12-19T03:27:24.887Z,14.80
2022-12-19T03:29:57.255Z,14.80
2022-12-19T03:32:24.642Z,14.80
2022-12-19T03:34:59.619Z,14.80
2022-12-19T03:37:28.310Z,14.80
2022-12-19T03:39:58.581Z,14.80
2022-12-19T03:42:44.854Z,14.80
2022-12-19T03:45:12.650Z,14.80
2022-12-19T03:47:41.885Z,14.80
2022-12-19T03:50:09.064Z,14.80
2022-12-19T03:52:39.652Z,14.80
2022-12-19T03:55:16.590Z,14.70
2022-12-19T03:57:46.140Z,14.70
2022-12-19T04:00:14.659Z,14.80
2022-12-19T04:02:43.709Z,14.80
2022-12-19T04:05:13.247Z,14.80
2022-12-19T04:07:40.151Z,14.80
2022-12-19T04:10:09.347Z,14.80
2022-12-19T04:12:38.184Z,14.80
2022-12-19T04:15:05.418Z,14.80
2022-12-19T04:17:36.404Z,14.80
2022-12-19T04:20:08.146Z,14.80
2022-12-19T04:22:56.683Z,14.80
2022-12-19T04:25:29.705Z,14.80
2022-12-19T04:28:07.970Z,14.80
2022-12-19T04:30:36.587Z,14.80
2022-12-19T04:33:03.884Z,14.80
2022-12-19T04:35:30.552Z,14.80
2022-12-19T04:37:57.162Z,14.80
2022-12-19T04:40:23.742Z,14.80
2022-12-19T04:42:50.337Z,14.80
2022-12-19T04:45:16.922Z,14.80
2022-12-19T04:47:43.884Z,14.80
2022-12-19T04:50:10.867Z,14.80
2022-12-19T04:52:37.470Z,14.80
2022-12-19T04:55:04.223Z,14.80
2022-12-19T04:57:31.043Z,14.90
2022-12-19T04:59:57.663Z,14.90
2022-12-19T05:02:24.724Z,15.00
2022-12-19T05:04:51.723Z,15.00
2022-12-19T05:07:18.303Z,15.00
2022-12-19T05:09:44.870Z,15.30
2022-12-19T05:12:11.581Z,15.00
2022-12-19T05:14:38.158Z,15.00
2022-12-19T05:17:04.715Z,15.00
2022-12-19T05:19:31.300Z,15.00
2022-12-19T05:21:58.285Z,14.90
2022-12-19T05:24:24.875Z,14.90
2022-12-19T05:26:51.447Z,14.90
2022-12-19T05:29:18.006Z,14.90
2022-12-19T05:31:45.043Z,14.90
2022-12-19T05:34:11.715Z,14.90
2022-12-19T05:36:38.756Z,15.00
2022-12-19T05:39:05.325Z,15.10
2022-12-19T05:41:31.934Z,14.90
2022-12-19T05:43:58.596Z,14.90
2022-12-19T05:46:25.298Z,14.90
2022-12-19T05:48:51.842Z,14.90
2022-12-19T05:51:18.548Z,14.90
2022-12-19T05:53:45.127Z,14.90
2022-12-19T05:56:13.235Z,14.90
2022-12-19T05:58:40.396Z,14.90
2022-12-19T06:01:08.875Z,15.00
2022-12-19T06:03:35.488Z,14.90
2022-12-19T06:06:03.861Z,15.10
2022-12-19T06:08:30.475Z,14.90
2022-12-19T06:10:58.504Z,14.90
2022-12-19T06:13:25.246Z,14.90
2022-12-19T06:15:56.745Z,14.80
2022-12-19T06:18:23.285Z,14.90
2022-12-19T06:20:57.055Z,14.90
2022-12-19T06:23:23.608Z,14.90
2022-12-19T06:25:50.244Z,14.90
2022-12-19T06:28:16.787Z,14.90
2022-12-19T06:30:43.337Z,14.90
2022-12-19T06:33:10.050Z,14.90
2022-12-19T06:35:37.110Z,14.90
2022-12-19T06:38:03.688Z,14.90
2022-12-19T06:40:49.005Z,14.90
2022-12-19T06:43:15.561Z,15.00
2022-12-19T06:45:42.146Z,14.90
2022-12-19T06:48:08.714Z,14.90
2022-12-19T06:50:35.862Z,14.90
2022-12-19T06:53:05.432Z,14.90
2022-12-19T06:55:32.282Z,14.90
2022-12-19T06:57:58.849Z,14.90
2022-12-19T07:00:26.224Z,14.90
2022-12-19T07:02:53.650Z,14.90
2022-12-19T07:05:20.299Z,14.90
2022-12-19T07:07:46.885Z,14.90
2022-12-19T07:10:13.640Z,15.00
2022-12-19T07:12:40.355Z,14.90
2022-12-19T07:15:07.161Z,14.90
2022-12-19T07:17:33.913Z,14.90
2022-12-19T07:20:00.460Z,14.90
2022-12-19T07:22:30.706Z,14.90
2022-12-19T07:24:57.654Z,15.00
2022-12-19T07:27:25.655Z,15.10
2022-12-19T07:29:54.493Z,14.90
2022-12-19T07:32:21.560Z,14.90
2022-12-19T07:34:48.104Z,14.90
2022-12-19T07:37:14.684Z,15.00
2022-12-19T07:39:41.268Z,15.00
2022-12-19T07:42:07.834Z,15.00
2022-12-19T07:44:34.953Z,14.90
2022-12-19T07:47:01.524Z,15.00
2022-12-19T07:49:28.089Z,15.00
2022-12-19T07:51:54.735Z,15.00
2022-12-19T07:54:21.353Z,15.00
2022-12-19T07:56:47.926Z,15.00
2022-12-19T07:59:14.573Z,15.00
2022-12-19T08:01:41.161Z,15.00
2022-12-19T08:04:07.975Z,15.00
2022-12-19T08:06:40.635Z,15.00
2022-12-19T08:09:07.831Z,15.00
2022-12-19T08:11:34.503Z,15.00
2022-12-19T08:14:01.550Z,15.00
2022-12-19T08:16:28.242Z,14.90
2022-12-19T08:18:55.703Z,14.90
2022-12-19T08:21:22.687Z,14.90
2022-12-19T08:23:50.094Z,14.90
2022-12-19T08:26:19.186Z,14.90
2022-12-19T08:28:48.026Z,14.90
2022-12-19T08:31:17.185Z,14.90
2022-12-19T08:33:43.985Z,14.90
2022-12-19T08:36:11.964Z,14.90
2022-12-19T08:38:39.678Z,15.00
2022-12-19T08:41:06.722Z,15.00
2022-12-19T08:43:33.563Z,15.10
2022-12-19T08:46:00.290Z,15.20
2022-12-19T08:48:26.909Z,15.10
2022-12-19T08:50:54.771Z,15.00
2022-12-19T08:53:26.037Z,15.00
2022-12-19T08:56:00.911Z,15.00
2022-12-19T08:58:28.687Z,14.90
2022-12-19T09:01:05.353Z,14.90
2022-12-19T09:03:42.867Z,14.90
2022-12-19T09:06:19.784Z,14.90
2022-12-19T09:08:47.765Z,14.80
2022-12-19T09:11:15.707Z,14.80
2022-12-19T09:13:42.970Z,15.00
2022-12-19T09:16:16.779Z,14.80
2022-12-19T09:18:48.775Z,14.80
2022-12-19T09:21:16.040Z,14.90
2022-12-19T09:23:43.004Z,14.90
2022-12-19T09:26:12.971Z,14.90
2022-12-19T09:28:40.320Z,15.30
2022-12-19T09:31:08.347Z,14.90
2022-12-19T09:33:42.917Z,14.90
2022-12-19T09:36:17.610Z,14.90
2022-12-19T09:38:44.463Z,14.80
2022-12-19T09:41:14.047Z,14.90
2022-12-19T09:43:54.248Z,14.90
2022-12-19T09:46:47.647Z,14.90
2022-12-19T09:49:24.727Z,14.90
2022-12-19T09:51:59.051Z,14.90
2022-12-19T09:54:41.040Z,14.90
2022-12-19T09:57:13.393Z,15.00
2022-12-19T09:59:47.948Z,15.00
2022-12-19T10:02:26.883Z,15.00
2022-12-19T10:05:27.724Z,15.00
2022-12-19T10:08:07.864Z,15.10
2022-12-19T10:12:37.284Z,14.90
2022-12-19T10:13:30.509Z,14.90
2022-12-19T10:16:03.840Z,15.00
2022-12-19T10:18:30.784Z,15.10
2022-12-19T10:21:04.298Z,14.90
2022-12-19T10:23:50.339Z,14.90
2022-12-19T10:26:17.124Z,15.00
2022-12-19T10:28:50.194Z,15.00
2022-12-19T10:31:23.209Z,15.70
2022-12-19T10:33:54.672Z,15.00
2022-12-19T10:36:36.263Z,15.00
2022-12-19T10:39:12.729Z,15.00
2022-12-19T10:41:44.173Z,15.00
2022-12-19T10:44:11.817Z,15.00
2022-12-19T10:46:42.687Z,15.00
2022-12-19T10:49:17.144Z,15.00
2022-12-19T10:51:56.143Z,14.90
2022-12-19T10:54:27.580Z,14.90
2022-12-19T10:57:18.239Z,15.00
2022-12-19T11:00:04.009Z,15.00
2022-12-19T11:02:35.818Z,15.00
2022-12-19T11:05:03.622Z,15.00
2022-12-19T11:07:30.377Z,15.00
2022-12-19T11:10:05.657Z,15.00
2022-12-19T11:17:11.732Z,15.00
2022-12-19T11:20:53.051Z,15.00
2022-12-19T11:29:26.084Z,15.00
2022-12-19T11:30:08.859Z,15.00
2022-12-19T11:30:35.949Z,15.00
2022-12-19T11:30:37.768Z,15.00
2022-12-19T11:33:15.788Z,15.00
2022-12-19T11:35:48.462Z,15.00
2022-12-19T11:38:16.347Z,15.00
2022-12-19T11:40:52.981Z,14.90
2022-12-19T11:43:46.739Z,15.00
2022-12-19T11:46:32.492Z,14.90
2022-12-19T11:48:59.045Z,14.90
2022-12-19T11:51:33.429Z,15.90
2022-12-19T11:53:59.972Z,14.90
2022-12-19T11:56:27.962Z,14.90
2022-12-19T11:58:56.685Z,14.90
2022-12-19T12:01:26.335Z,14.90
2022-12-19T12:04:03.340Z,14.90
2022-12-19T12:06:34.797Z,14.90
2022-12-19T12:12:40.212Z,14.90
2022-12-19T12:19:04.531Z,14.90
2022-12-19T12:28:51.527Z,15.70
2022-12-19T12:30:59.851Z,15.00
2022-12-19T12:31:06.800Z,15.00
2022-12-19T12:31:17.979Z,15.00
2022-12-19T12:31:52.924Z,15.00
2022-12-19T12:31:53.741Z,15.00
2022-12-19T12:35:54.024Z,15.00
2022-12-19T12:37:03.484Z,15.00
2022-12-19T12:38:19.063Z,15.10
2022-12-19T12:40:59.710Z,15.10
2022-12-19T12:43:42.964Z,15.10
2022-12-19T12:46:13.175Z,15.20
2022-12-19T12:48:55.529Z,15.10
2022-12-19T12:51:22.584Z,15.00
2022-12-19T12:53:50.009Z,15.00
2022-12-19T12:56:17.495Z,15.00
2022-12-19T12:58:48.355Z,15.10
2022-12-19T13:01:18.146Z,14.50
2022-12-19T13:04:04.543Z,15.20
2022-12-19T13:06:38.811Z,15.10
2022-12-19T13:09:20.127Z,15.10
2022-12-19T13:12:09.360Z,15.10
2022-12-19T13:14:36.097Z,15.10
2022-12-19T13:17:03.511Z,15.20
2022-12-19T13:19:31.434Z,15.20
2022-12-19T13:22:04.167Z,15.10
2022-12-19T13:24:41.076Z,15.20
2022-12-19T13:27:19.871Z,15.20
2022-12-19T13:30:07.806Z,15.20
2022-12-19T13:32:40.567Z,15.20
2022-12-19T13:36:28.874Z,15.20
2022-12-19T13:39:51.498Z,15.20
2022-12-19T13:41:26.863Z,15.20
2022-12-19T13:43:58.532Z,15.20
2022-12-19T13:46:44.276Z,15.20
2022-12-19T13:49:27.159Z,15.20
2022-12-19T13:51:57.351Z,15.20
2022-12-19T13:54:32.071Z,15.10
2022-12-19T13:56:59.193Z,15.10
2022-12-19T13:59:30.146Z,15.10
2022-12-19T14:02:05.786Z,15.10
2022-12-19T14:04:32.951Z,15.20
2022-12-19T14:07:01.430Z,15.20
2022-12-19T14:11:27.109Z,15.20
2022-12-19T14:13:50.133Z,15.20
2022-12-19T14:15:29.758Z,15.20
2022-12-19T14:17:58.908Z,15.10
2022-12-19T14:22:01.573Z,15.20
2022-12-19T14:23:43.835Z,15.30
2022-12-19T14:28:26.302Z,15.20
2022-12-19T14:29:28.591Z,15.10
2022-12-19T14:33:39.246Z,15.10
2022-12-19T14:36:05.087Z,15.10
2022-12-19T14:39:20.731Z,15.10
2022-12-19T14:40:31.878Z,15.10
2022-12-19T14:43:58.724Z,15.10
2022-12-19T14:53:08.700Z,15.10
2022-12-19T14:54:07.520Z,15.20
2022-12-19T14:54:20.954Z,15.20
2022-12-19T14:56:16.463Z,15.20
2022-12-19T14:58:54.885Z,15.20
2022-12-19T15:01:08.984Z,15.20
2022-12-19T15:03:40.162Z,15.20
2022-12-19T15:07:06.027Z,15.20
2022-12-19T15:11:06.498Z,15.20
2022-12-19T15:14:47.629Z,15.20
2022-12-19T15:15:17.332Z,15.20
2022-12-19T15:17:45.636Z,15.20
2022-12-19T15:20:12.361Z,15.20
2022-12-19T15:22:39.031Z,15.20
2022-12-19T15:25:05.868Z,15.20
2022-12-19T15:27:32.449Z,15.20
2022-12-19T15:29:59.103Z,15.20
2022-12-19T15:32:25.694Z,15.20
2022-12-19T15:34:52.274Z,15.20
2022-12-19T15:37:18.876Z,15.20
2022-12-19T15:39:45.522Z,15.30
2022-12-19T15:42:22.697Z,15.30
2022-12-19T15:44:49.707Z,15.30
2022-12-19T15:47:25.715Z,15.30
2022-12-19T15:49:52.272Z,15.30
2022-12-19T15:52:19.429Z,15.30
2022-12-19T15:54:48.546Z,15.30
2022-12-19T15:57:19.684Z,15.40
2022-12-19T15:59:46.266Z,15.40
2022-12-19T16:02:15.878Z,15.40
2022-12-19T16:04:42.919Z,15.40
2022-12-19T16:07:16.329Z,15.40
2022-12-19T16:09:42.917Z,15.40
2022-12-19T16:12:13.332Z,15.40
2022-12-19T16:14:39.902Z,15.40
2022-12-19T16:17:09.614Z,15.40
2022-12-19T16:19:36.170Z,15.40
2022-12-19T16:22:09.708Z,15.30
2022-12-19T16:24:36.254Z,15.30
2022-12-19T16:27:03.098Z,15.40
2022-12-19T16:29:31.238Z,15.30
2022-12-19T16:31:57.942Z,15.30
2022-12-19T16:34:24.569Z,15.30
2022-12-19T16:36:51.195Z,15.30
2022-12-19T16:39:17.858Z,15.30
2022-12-19T16:41:45.265Z,15.30
2022-12-19T16:44:19.888Z,15.30
2022-12-19T16:46:50.597Z,15.30
2022-12-19T16:49:19.661Z,15.30
2022-12-19T16:51:46.464Z,15.30
2022-12-19T16:54:13.502Z,15.30
2022-12-19T16:56:47.866Z,15.30
2022-12-19T16:59:20.377Z,15.30
2022-12-19T17:01:47.267Z,15.40
2022-12-19T17:04:21.732Z,15.40
2022-12-19T17:06:48.705Z,15.30
2022-12-19T17:09:16.779Z,15.40
2022-12-19T17:12:00.719Z,15.30
2022-12-19T17:14:29.552Z,15.40
2022-12-19T17:17:00.661Z,15.30
2022-12-19T17:19:32.053Z,15.30
2022-12-19T17:21:58.622Z,15.30
2022-12-19T17:24:25.187Z,15.30
2022-12-19T17:26:51.723Z,15.30
2022-12-19T17:29:18.758Z,15.30
2022-12-19T17:31:45.329Z,15.30
2022-12-19T17:34:24.824Z,15.40
2022-12-19T17:36:51.421Z,15.50
2022-12-19T17:39:22.269Z,15.40
2022-12-19T17:41:49.867Z,15.50
2022-12-19T17:44:16.806Z,15.40
2022-12-19T17:46:44.172Z,15.40
2022-12-19T17:49:16.206Z,15.40
2022-12-19T17:51:45.786Z,15.30
2022-12-19T17:54:12.517Z,15.30
2022-12-19T17:56:39.059Z,15.40
2022-12-19T17:59:05.602Z,15.40
2022-12-19T18:01:32.645Z,15.40
2022-12-19T18:03:59.495Z,15.50
2022-12-19T18:06:26.139Z,15.40
2022-12-19T18:08:52.796Z,16.30
2022-12-19T18:11:23.781Z,15.40
2022-12-19T18:13:50.753Z,15.40
2022-12-19T18:16:19.650Z,15.40
2022-12-19T18:18:46.381Z,15.40
2022-12-19T18:21:17.693Z,15.60
2022-12-19T18:23:44.373Z,15.40
2022-12-19T18:26:11.412Z,15.40
2022-12-19T18:28:38.928Z,15.40
2022-12-19T18:31:11.705Z,15.40
2022-12-19T18:33:39.547Z,15.40
2022-12-19T18:36:07.296Z,15.40
2022-12-19T18:38:34.005Z,15.30
2022-12-19T18:41:00.623Z,15.30
2022-12-19T18:43:27.351Z,15.30
2022-12-19T18:45:53.996Z,15.50
2022-12-19T18:48:23.570Z,15.30
2022-12-19T18:50:50.163Z,15.30
2022-12-19T18:53:18.336Z,15.30
2022-12-19T18:55:44.905Z,15.30
2022-12-19T18:58:11.449Z,15.30
2022-12-19T19:00:38.489Z,15.20
2022-12-19T19:03:07.220Z,15.30
2022-12-19T19:05:35.147Z,15.30
2022-12-19T19:08:06.056Z,15.30
2022-12-19T19:10:32.764Z,15.30
2022-12-19T19:13:02.694Z,15.30
2022-12-19T19:15:33.232Z,15.30
2022-12-19T19:18:00.970Z,15.30
2022-12-19T19:20:28.865Z,15.30
2022-12-19T19:22:55.837Z,15.30
2022-12-19T19:25:22.483Z,15.40
2022-12-19T19:27:49.909Z,15.40
2022-12-19T19:30:16.660Z,15.70
2022-12-19T19:32:49.529Z,15.50
2022-12-19T19:35:17.435Z,15.50
2022-12-19T19:37:44.950Z,15.60
2022-12-19T19:40:11.999Z,15.60
2022-12-19T19:42:38.683Z,15.60
2022-12-19T19:45:05.882Z,15.50
2022-12-19T19:47:36.015Z,15.50
2022-12-19T19:50:07.376Z,15.50
2022-12-19T19:52:34.008Z,15.50
2022-12-19T19:55:00.600Z,15.50
2022-12-19T19:57:27.216Z,15.50
2022-12-19T19:59:53.763Z,15.40
2022-12-19T20:02:20.535Z,15.50
2022-12-19T20:04:47.247Z,15.40
2022-12-19T20:07:13.875Z,15.40
2022-12-19T20:09:40.428Z,15.40
2022-12-19T20:12:07.096Z,15.40
2022-12-19T20:14:33.721Z,15.50
2022-12-19T20:17:00.356Z,15.40
2022-12-19T20:19:27.066Z,16.20
2022-12-19T20:21:53.752Z,15.40
2022-12-19T20:24:20.317Z,15.40
2022-12-19T20:26:46.946Z,15.40
2022-12-19T20:29:13.942Z,15.40
2022-12-19T20:31:41.304Z,15.40
2022-12-19T20:34:07.985Z,15.40
2022-12-19T20:36:34.668Z,15.40
2022-12-19T20:39:01.239Z,15.40
2022-12-19T20:41:27.948Z,15.40
2022-12-19T20:43:55.028Z,15.30
2022-12-19T20:46:22.170Z,15.40
2022-12-19T20:48:49.150Z,15.40
2022-12-19T20:51:17.231Z,15.40
2022-12-19T20:53:44.213Z,15.40
2022-12-19T20:56:12.717Z,15.30
2022-12-19T20:58:39.354Z,15.30
2022-12-19T21:01:10.469Z,15.30
2022-12-19T21:03:37.820Z,15.30
2022-12-19T21:06:05.063Z,15.30
2022-12-19T21:08:32.207Z,15.40
2022-12-19T21:10:59.670Z,15.30
2022-12-19T21:13:26.243Z,15.40
2022-12-19T21:15:53.626Z,15.30
2022-12-19T21:18:20.701Z,15.30
2022-12-19T21:20:47.579Z,15.40
2022-12-19T21:23:14.232Z,15.40
2022-12-19T21:25:40.933Z,15.40
2022-12-19T21:28:07.629Z,15.40
2022-12-19T21:30:34.296Z,15.30
2022-12-19T21:33:01.135Z,15.30
2022-12-19T21:35:27.790Z,15.30
2022-12-19T21:37:54.405Z,15.30
2022-12-19T21:40:21.076Z,15.30
2022-12-19T21:42:48.074Z,15.30
2022-12-19T21:45:15.289Z,15.70
2022-12-19T21:47:43.022Z,15.30
2022-12-19T21:50:10.842Z,15.30
2022-12-19T21:52:37.602Z,15.30
2022-12-19T21:55:08.471Z,15.30
2022-12-19T21:57:39.336Z,15.30
2022-12-19T22:00:07.154Z,15.30
2022-12-19T22:02:34.049Z,15.30
2022-12-19T22:05:00.830Z,15.30
2022-12-19T22:07:27.459Z,15.30
2022-12-19T22:09:57.076Z,15.30
2022-12-19T22:12:23.860Z,15.30
2022-12-19T22:14:52.496Z,15.30
2022-12-19T22:17:19.153Z,15.30
2022-12-19T22:19:45.705Z,15.30
2022-12-19T22:22:12.315Z,15.30
2022-12-19T22:24:38.916Z,15.30
2022-12-19T22:27:05.475Z,15.80
2022-12-19T22:29:36.314Z,15.30
2022-12-19T22:32:03.812Z,15.30
2022-12-19T22:34:30.458Z,15.30
2022-12-19T22:36:57.075Z,16.00
2022-12-19T22:39:23.677Z,15.30
2022-12-19T22:41:50.295Z,15.30
2022-12-19T22:44:21.419Z,15.30
2022-12-19T22:46:48.174Z,15.30
2022-12-19T22:49:14.864Z,15.30
2022-12-19T22:51:41.830Z,15.60
2022-12-19T22:54:08.678Z,15.30
2022-12-19T22:56:35.321Z,15.30
2022-12-19T22:59:04.806Z,15.50
2022-12-19T23:01:36.869Z,15.30
2022-12-19T23:04:06.449Z,15.30
2022-12-19T23:06:34.058Z,15.40
2022-12-19T23:09:01.130Z,15.30
2022-12-19T23:11:32.236Z,15.30
2022-12-19T23:14:00.196Z,15.30
2022-12-19T23:16:26.788Z,15.30
2022-12-19T23:18:53.478Z,15.30
2022-12-19T23:21:21.807Z,15.30
2022-12-19T23:23:49.421Z,15.30
2022-12-19T23:26:20.655Z,15.30
2022-12-19T23:28:51.346Z,15.30
2022-12-19T23:31:18.320Z,15.40
2022-12-19T23:33:44.923Z,15.60
2022-12-19T23:36:11.626Z,15.50
2022-12-19T23:38:38.251Z,15.50
2022-12-19T23:41:08.766Z,15.50
2022-12-19T23:43:36.267Z,15.50
2022-12-19T23:46:10.726Z,15.50
2022-12-19T23:48:37.531Z,15.50
2022-12-19T23:51:05.512Z,15.50
2022-12-19T23:53:32.696Z,15.50
2022-12-19T23:55:59.602Z,15.40
2022-12-19T23:58:26.189Z,15.50
